createdAt,value
2018-03-26T00:00:14.476Z,52.10
2018-03-26T00:02:42.837Z,52.20
2018-03-26T00:05:10.464Z,52.10
2018-03-26T00:07:38.062Z,52.30
2018-03-26T00:10:05.656Z,52.30
2018-03-26T00:12:33.282Z,52.40
2018-03-26T00:15:00.882Z,52.40
2018-03-26T00:17:28.519Z,52.50
2018-03-26T00:19:57.001Z,52.50
2018-03-26T00:22:25.397Z,52.60
2018-03-26T00:24:53.767Z,52.50
2018-03-26T00:27:22.119Z,52.60
2018-03-26T00:29:49.753Z,52.60
2018-03-26T00:32:17.340Z,52.80
2018-03-26T00:34:44.995Z,52.70
2018-03-26T00:37:12.593Z,52.70
2018-03-26T00:39:40.213Z,52.80
2018-03-26T00:42:07.854Z,52.70
2018-03-26T00:44:35.457Z,52.80
2018-03-26T00:47:03.100Z,52.80
2018-03-26T00:49:30.692Z,53.50
2018-03-26T00:51:59.055Z,53.00
2018-03-26T00:54:26.697Z,52.90
2018-03-26T00:56:54.338Z,53.00
2018-03-26T00:59:21.924Z,53.00
2018-03-26T01:01:49.560Z,53.00
2018-03-26T01:04:17.164Z,53.10
2018-03-26T01:06:44.790Z,53.00
2018-03-26T01:09:12.386Z,53.00
2018-03-26T01:11:40.008Z,53.10
2018-03-26T01:14:07.604Z,53.10
2018-03-26T01:16:35.976Z,53.40
2018-03-26T01:19:03.616Z,53.10
2018-03-26T01:21:31.206Z,53.20
2018-03-26T01:23:58.804Z,53.10
2018-03-26T01:26:26.424Z,53.20
2018-03-26T01:28:55.522Z,53.30
2018-03-26T01:31:23.908Z,53.30
2018-03-26T01:33:52.282Z,53.20
2018-03-26T01:36:19.904Z,53.10
2018-03-26T01:38:47.495Z,53.20
2018-03-26T01:41:15.121Z,53.10
2018-03-26T01:43:42.708Z,53.20
2018-03-26T01:46:10.337Z,53.30
2018-03-26T01:48:37.931Z,53.20
2018-03-26T01:51:05.562Z,53.20
2018-03-26T01:53:33.154Z,53.20
2018-03-26T01:56:00.782Z,53.20
2018-03-26T01:58:28.376Z,53.30
2018-03-26T02:00:56.000Z,53.40
2018-03-26T02:03:23.601Z,53.50
2018-03-26T02:05:51.225Z,53.30
2018-03-26T02:08:18.821Z,53.40
2018-03-26T02:10:46.450Z,53.40
2018-03-26T02:13:14.044Z,53.50
2018-03-26T02:15:41.668Z,53.50
2018-03-26T02:18:09.265Z,53.60
2018-03-26T02:20:36.893Z,53.60
2018-03-26T02:23:04.534Z,53.60
2018-03-26T02:25:32.161Z,53.50
2018-03-26T02:27:59.756Z,53.40
2018-03-26T02:30:27.376Z,53.60
2018-03-26T02:32:55.732Z,53.70
2018-03-26T02:35:23.352Z,53.60
2018-03-26T02:37:50.948Z,53.60
2018-03-26T02:40:18.579Z,53.70
2018-03-26T02:42:46.184Z,53.70
2018-03-26T02:45:13.817Z,53.60
2018-03-26T02:47:41.410Z,53.80
2018-03-26T02:50:09.007Z,53.90
2018-03-26T02:52:37.388Z,54.00
2018-03-26T02:55:04.989Z,54.00
2018-03-26T02:57:32.612Z,54.00
2018-03-26T03:00:00.209Z,54.10
2018-03-26T03:02:27.832Z,54.10
2018-03-26T03:04:55.428Z,54.10
2018-03-26T03:07:23.053Z,54.30
2018-03-26T03:09:50.654Z,54.20
2018-03-26T03:12:18.277Z,54.40
2018-03-26T03:14:45.873Z,54.40
2018-03-26T03:17:13.496Z,54.50
2018-03-26T03:19:41.089Z,54.60
2018-03-26T03:22:08.710Z,54.70
2018-03-26T03:24:37.074Z,54.80
2018-03-26T03:27:05.469Z,54.80
2018-03-26T03:29:33.833Z,54.90
2018-03-26T03:32:02.228Z,54.70
2018-03-26T03:34:29.848Z,54.70
2018-03-26T03:36:57.476Z,54.80
2018-03-26T03:39:25.081Z,54.90
2018-03-26T03:41:52.720Z,54.80
2018-03-26T03:44:20.325Z,55.00
2018-03-26T03:46:48.712Z,54.90
2018-03-26T03:49:17.072Z,55.00
2018-03-26T03:51:44.700Z,55.00
2018-03-26T03:54:12.300Z,55.10
2018-03-26T03:56:40.704Z,55.20
2018-03-26T03:59:08.393Z,55.20
2018-03-26T04:01:35.983Z,55.10
2018-03-26T04:04:03.626Z,55.10
2018-03-26T04:06:31.234Z,55.30
2018-03-26T04:08:59.620Z,55.50
2018-03-26T04:11:27.233Z,55.50
2018-03-26T04:13:54.867Z,55.30
2018-03-26T04:16:22.468Z,55.40
2018-03-26T04:18:50.065Z,56.10
2018-03-26T04:21:17.693Z,55.80
2018-03-26T04:23:46.066Z,55.80
2018-03-26T04:26:13.712Z,55.80
2018-03-26T04:28:41.308Z,55.70
2018-03-26T04:31:09.792Z,55.70
2018-03-26T04:33:38.175Z,55.60
2018-03-26T04:36:06.539Z,55.50
2018-03-26T04:38:34.926Z,55.50
2018-03-26T04:41:03.284Z,55.40
2018-03-26T04:43:30.911Z,55.40
2018-03-26T04:45:58.505Z,55.50
2018-03-26T04:48:26.131Z,55.30
2018-03-26T04:50:53.728Z,55.30
2018-03-26T04:53:21.358Z,55.50
2018-03-26T04:55:48.987Z,55.30
2018-03-26T04:58:17.328Z,55.70
2018-03-26T05:00:44.948Z,55.60
2018-03-26T05:03:12.546Z,55.50
2018-03-26T05:05:40.177Z,55.70
2018-03-26T05:08:07.772Z,55.60
2018-03-26T05:10:36.151Z,55.80
2018-03-26T05:13:03.743Z,55.80
2018-03-26T05:15:32.133Z,55.80
2018-03-26T05:17:59.732Z,55.80
2018-03-26T05:20:27.353Z,56.00
2018-03-26T05:22:54.948Z,55.90
2018-03-26T05:25:22.572Z,55.70
2018-03-26T05:27:50.182Z,55.80
2018-03-26T05:30:17.801Z,55.80
2018-03-26T05:32:45.405Z,55.60
2018-03-26T05:35:13.032Z,55.70
2018-03-26T05:37:40.630Z,55.80
2018-03-26T05:40:09.243Z,55.70
2018-03-26T05:42:37.605Z,55.60
2018-03-26T05:45:05.240Z,55.60
2018-03-26T05:47:32.836Z,55.70
2018-03-26T05:50:01.242Z,55.40
2018-03-26T05:52:28.839Z,55.40
2018-03-26T05:54:56.591Z,55.40
2018-03-26T05:57:26.389Z,55.30
2018-03-26T05:59:54.021Z,55.50
2018-03-26T06:02:22.390Z,55.60
2018-03-26T06:04:50.755Z,55.70
2018-03-26T06:07:18.378Z,55.60
2018-03-26T06:09:45.974Z,55.70
2018-03-26T06:12:13.600Z,55.80
2018-03-26T06:14:41.200Z,55.60
2018-03-26T06:17:16.335Z,55.40
2018-03-26T06:19:43.932Z,55.40
2018-03-26T06:22:11.552Z,55.10
2018-03-26T06:24:39.152Z,55.40
2018-03-26T06:27:06.774Z,55.40
2018-03-26T06:29:34.368Z,55.60
2018-03-26T06:32:02.765Z,55.80
2018-03-26T06:34:30.360Z,55.70
2018-03-26T06:39:57.635Z,55.40
2018-03-26T06:42:25.261Z,55.40
2018-03-26T06:44:52.848Z,55.50
2018-03-26T06:47:20.480Z,55.40
2018-03-26T06:49:48.097Z,55.50
2018-03-26T06:52:16.497Z,55.40
2018-03-26T06:54:44.875Z,55.70
2018-03-26T06:57:13.269Z,55.60
2018-03-26T06:59:40.872Z,55.40
2018-03-26T07:02:08.499Z,56.00
2018-03-26T07:04:36.141Z,55.90
2018-03-26T07:07:04.510Z,55.80
2018-03-26T07:09:32.956Z,55.70
2018-03-26T07:12:00.568Z,55.60
2018-03-26T07:14:28.220Z,55.60
2018-03-26T07:16:56.575Z,56.20
2018-03-26T07:19:25.015Z,55.60
2018-03-26T07:21:52.618Z,55.40
2018-03-26T07:24:20.236Z,55.60
2018-03-26T07:26:47.836Z,56.00
2018-03-26T07:29:15.454Z,56.10
2018-03-26T07:31:43.039Z,56.40
2018-03-26T07:34:11.463Z,55.70
2018-03-26T07:36:39.825Z,56.30
2018-03-26T07:39:07.449Z,56.20
2018-03-26T07:41:35.039Z,56.00
2018-03-26T07:44:02.673Z,55.90
2018-03-26T07:46:30.268Z,56.00
2018-03-26T07:48:57.888Z,55.50
2018-03-26T07:51:25.560Z,55.60
2018-03-26T07:53:53.185Z,55.50
2018-03-26T07:56:20.882Z,55.50
2018-03-26T07:58:48.495Z,55.10
2018-03-26T08:01:16.853Z,55.00
2018-03-26T08:03:45.248Z,56.00
2018-03-26T08:06:13.604Z,55.10
2018-03-26T08:08:41.273Z,55.00
2018-03-26T08:11:08.892Z,55.30
2018-03-26T08:13:36.488Z,55.60
2018-03-26T08:16:04.125Z,55.10
2018-03-26T08:18:31.763Z,55.20
2018-03-26T08:20:59.364Z,55.00
2018-03-26T08:23:26.989Z,55.20
2018-03-26T08:25:54.588Z,55.40
2018-03-26T08:28:22.200Z,55.40
2018-03-26T08:30:49.840Z,55.50
2018-03-26T08:33:18.202Z,54.50
2018-03-26T08:35:46.605Z,55.00
2018-03-26T08:38:14.196Z,55.00
2018-03-26T08:40:41.828Z,55.20
2018-03-26T08:43:09.416Z,54.90
2018-03-26T08:45:37.042Z,54.50
2018-03-26T08:48:05.399Z,55.20
2018-03-26T08:50:33.802Z,55.20
2018-03-26T08:53:01.420Z,55.00
2018-03-26T08:55:29.040Z,54.60
2018-03-26T08:57:56.636Z,55.10
2018-03-26T09:00:24.264Z,55.20
2018-03-26T09:02:51.865Z,55.80
2018-03-26T09:05:20.290Z,54.70
2018-03-26T09:07:48.102Z,54.60
2018-03-26T09:10:15.923Z,54.60
2018-03-26T09:12:43.839Z,55.00
2018-03-26T09:15:11.705Z,55.30
2018-03-26T09:17:41.106Z,54.90
2018-03-26T09:20:08.974Z,54.90
2018-03-26T09:22:36.940Z,55.10
2018-03-26T09:25:04.803Z,55.00
2018-03-26T09:27:32.674Z,54.50
2018-03-26T09:30:00.542Z,54.80
2018-03-26T09:32:28.408Z,55.00
2018-03-26T09:34:56.276Z,54.60
2018-03-26T09:37:24.453Z,54.80
2018-03-26T09:39:53.037Z,54.90
2018-03-26T09:42:20.897Z,54.70
2018-03-26T09:44:48.663Z,54.60
2018-03-26T09:47:16.629Z,54.80
2018-03-26T09:49:44.392Z,55.00
2018-03-26T09:52:12.016Z,55.10
2018-03-26T09:54:39.672Z,54.60
2018-03-26T09:57:07.305Z,54.40
2018-03-26T09:59:34.892Z,54.90
2018-03-26T10:02:02.504Z,54.00
2018-03-26T10:04:30.137Z,54.20
2018-03-26T10:06:57.932Z,54.30
2018-03-26T10:09:25.533Z,54.90
2018-03-26T10:11:53.212Z,54.40
2018-03-26T10:14:20.826Z,54.00
2018-03-26T10:16:48.434Z,53.90
2018-03-26T10:19:16.118Z,54.20
2018-03-26T10:21:43.740Z,54.80
2018-03-26T10:24:12.100Z,54.50
2018-03-26T10:26:39.732Z,54.40
2018-03-26T10:29:07.320Z,54.20
2018-03-26T10:31:34.931Z,54.50
2018-03-26T10:34:03.213Z,54.80
2018-03-26T10:36:31.012Z,54.20
2018-03-26T10:38:58.603Z,54.40
2018-03-26T10:41:26.986Z,54.00
2018-03-26T10:43:54.584Z,53.80
2018-03-26T10:46:22.202Z,54.20
2018-03-26T10:48:49.801Z,54.30
2018-03-26T10:51:17.434Z,53.70
2018-03-26T10:53:45.047Z,54.00
2018-03-26T10:56:12.660Z,54.10
2018-03-26T10:58:40.244Z,54.00
2018-03-26T11:01:07.925Z,54.10
2018-03-26T11:03:35.512Z,54.20
2018-03-26T11:06:03.887Z,55.20
2018-03-26T11:08:32.342Z,54.80
2018-03-26T11:11:00.007Z,54.60
2018-03-26T11:13:27.857Z,54.30
2018-03-26T11:15:55.669Z,55.10
2018-03-26T11:18:24.217Z,54.80
2018-03-26T11:20:51.980Z,54.60
2018-03-26T11:23:19.674Z,54.70
2018-03-26T11:25:48.063Z,55.90
2018-03-26T11:28:16.551Z,55.30
2018-03-26T11:30:44.922Z,55.10
2018-03-26T11:33:13.328Z,55.20
2018-03-26T11:35:41.144Z,55.10
2018-03-26T11:38:08.768Z,55.30
2018-03-26T11:40:36.449Z,55.20
2018-03-26T11:43:04.316Z,55.20
2018-03-26T11:45:31.978Z,55.30
2018-03-26T11:47:59.677Z,55.00
2018-03-26T11:50:28.191Z,54.90
2018-03-26T11:52:56.117Z,54.70
2018-03-26T11:55:23.896Z,54.60
2018-03-26T11:57:52.551Z,54.60
2018-03-26T12:00:20.699Z,54.50
2018-03-26T12:02:48.337Z,54.50
2018-03-26T12:05:15.930Z,54.90
2018-03-26T12:07:44.247Z,55.10
2018-03-26T12:10:11.881Z,55.10
2018-03-26T12:12:39.513Z,55.10
2018-03-26T12:15:07.109Z,55.20
2018-03-26T12:17:34.785Z,54.90
2018-03-26T12:20:15.001Z,54.80
2018-03-26T12:22:42.596Z,55.00
2018-03-26T12:25:15.716Z,55.00
2018-03-26T12:27:55.252Z,55.00
2018-03-26T12:30:24.715Z,55.20
2018-03-26T12:32:52.454Z,55.00
2018-03-26T12:35:32.004Z,54.90
2018-03-26T12:37:59.591Z,55.10
2018-03-26T12:40:39.124Z,55.30
2018-03-26T12:43:06.721Z,55.20
2018-03-26T12:45:46.860Z,54.60
2018-03-26T12:48:14.447Z,54.60
2018-03-26T12:50:54.044Z,55.10
2018-03-26T12:53:21.635Z,55.00
2018-03-26T12:55:50.026Z,55.10
2018-03-26T12:58:29.533Z,55.00
2018-03-26T13:01:08.943Z,54.80
2018-03-26T13:03:36.529Z,55.00
2018-03-26T13:06:04.155Z,55.80
2018-03-26T13:08:31.752Z,55.00
2018-03-26T13:11:00.132Z,55.10
2018-03-26T13:13:27.759Z,55.10
2018-03-26T13:15:55.373Z,54.80
2018-03-26T13:18:23.800Z,55.00
2018-03-26T13:20:51.522Z,54.90
2018-03-26T13:23:19.883Z,55.20
2018-03-26T13:25:48.274Z,55.20
2018-03-26T13:28:16.624Z,55.10
2018-03-26T13:30:44.253Z,55.00
2018-03-26T13:33:11.842Z,55.00
2018-03-26T13:35:39.429Z,55.20
2018-03-26T13:38:07.828Z,54.80
2018-03-26T13:40:35.416Z,54.70
2018-03-26T13:43:03.028Z,54.60
2018-03-26T13:45:31.384Z,55.10
2018-03-26T13:47:59.010Z,54.50
2018-03-26T13:50:26.596Z,54.20
2018-03-26T13:52:54.215Z,54.40
2018-03-26T13:55:21.821Z,54.50
2018-03-26T13:57:49.485Z,54.60
2018-03-26T14:00:17.084Z,54.70
2018-03-26T14:02:44.704Z,54.30
2018-03-26T14:05:12.304Z,54.40
2018-03-26T14:07:40.685Z,54.70
2018-03-26T14:10:20.004Z,54.70
2018-03-26T14:13:00.223Z,54.40
2018-03-26T14:15:39.688Z,54.40
2018-03-26T14:18:08.072Z,54.30
2018-03-26T14:20:37.135Z,54.60
2018-03-26T14:23:04.748Z,54.50
2018-03-26T14:25:33.131Z,53.60
2018-03-26T14:28:01.772Z,54.00
2018-03-26T14:30:29.412Z,54.00
2018-03-26T14:32:57.004Z,54.40
2018-03-26T14:38:18.244Z,54.50
2018-03-26T14:40:46.670Z,53.70
2018-03-26T14:43:14.347Z,53.70
2018-03-26T14:45:42.008Z,54.00
2018-03-26T14:48:09.660Z,54.30
2018-03-26T14:50:37.283Z,54.10
2018-03-26T14:53:06.227Z,54.10
2018-03-26T14:55:33.833Z,53.60
2018-03-26T14:58:02.218Z,54.20
2018-03-26T15:00:30.585Z,54.00
2018-03-26T15:02:58.992Z,54.20
2018-03-26T15:05:26.684Z,54.10
2018-03-26T15:07:54.283Z,54.00
2018-03-26T15:10:21.913Z,54.20
2018-03-26T15:12:49.511Z,55.20
2018-03-26T15:15:17.889Z,54.70
2018-03-26T15:17:46.284Z,55.20
2018-03-26T15:20:14.644Z,55.30
2018-03-26T15:22:43.030Z,55.80
2018-03-26T15:25:11.461Z,55.20
2018-03-26T15:27:39.079Z,55.20
2018-03-26T15:30:07.441Z,55.40
2018-03-26T15:32:35.075Z,55.30
2018-03-26T15:35:02.679Z,55.20
2018-03-26T15:37:31.050Z,55.10
2018-03-26T15:39:59.452Z,55.20
2018-03-26T15:42:27.052Z,54.60
2018-03-26T15:44:54.650Z,54.80
2018-03-26T15:47:23.046Z,55.80
2018-03-26T15:49:50.666Z,55.20
2018-03-26T15:52:18.264Z,55.10
2018-03-26T15:54:45.968Z,54.70
2018-03-26T15:57:13.566Z,54.80
2018-03-26T15:59:41.192Z,55.10
2018-03-26T16:02:08.301Z,55.10
2018-03-26T16:04:36.261Z,54.60
2018-03-26T16:07:04.686Z,54.80
2018-03-26T16:09:33.132Z,55.10
2018-03-26T16:12:00.727Z,55.00
2018-03-26T16:14:28.352Z,55.00
2018-03-26T16:16:55.966Z,54.80
2018-03-26T16:19:24.376Z,54.80
2018-03-26T16:21:52.743Z,54.80
2018-03-26T16:24:20.378Z,54.80
2018-03-26T16:26:47.981Z,54.80
2018-03-26T16:29:16.352Z,54.90
2018-03-26T16:31:44.753Z,54.80
2018-03-26T16:34:12.354Z,54.60
2018-03-26T16:36:39.980Z,54.70
2018-03-26T16:39:07.576Z,54.80
2018-03-26T16:41:47.823Z,54.90
2018-03-26T16:44:16.232Z,54.80
2018-03-26T16:46:45.716Z,54.80
2018-03-26T16:49:16.308Z,54.90
2018-03-26T16:51:46.344Z,54.90
2018-03-26T16:54:17.111Z,54.70
2018-03-26T16:56:48.002Z,54.60
2018-03-26T16:59:17.793Z,54.60
2018-03-26T17:01:47.958Z,54.80
2018-03-26T17:04:17.810Z,54.80
2018-03-26T17:06:47.990Z,54.60
2018-03-26T17:09:18.109Z,55.40
2018-03-26T17:11:46.651Z,54.90
2018-03-26T17:14:15.025Z,55.00
2018-03-26T17:16:43.427Z,55.00
2018-03-26T17:19:11.069Z,55.00
2018-03-26T17:21:39.457Z,54.90
2018-03-26T17:24:07.881Z,54.90
2018-03-26T17:26:35.524Z,54.80
2018-03-26T17:29:03.126Z,54.70
2018-03-26T17:31:30.739Z,54.80
2018-03-26T17:33:59.929Z,54.80
2018-03-26T17:36:29.160Z,54.80
2018-03-26T17:38:58.145Z,55.10
2018-03-26T17:41:28.077Z,55.30
2018-03-26T17:43:57.256Z,54.60
2018-03-26T17:46:26.169Z,54.80
2018-03-26T17:48:55.175Z,54.90
2018-03-26T17:51:24.837Z,55.00
2018-03-26T17:53:54.636Z,54.90
2018-03-26T17:56:24.152Z,55.00
2018-03-26T17:58:51.832Z,54.90
2018-03-26T18:01:19.430Z,55.10
2018-03-26T18:03:47.044Z,54.90
2018-03-26T18:06:14.646Z,55.00
2018-03-26T18:08:42.268Z,54.60
2018-03-26T18:11:09.865Z,54.90
2018-03-26T18:13:37.486Z,54.80
2018-03-26T18:16:05.095Z,55.30
2018-03-26T18:18:32.726Z,54.80
2018-03-26T18:21:00.333Z,55.60
2018-03-26T18:23:27.974Z,54.90
2018-03-26T18:25:55.581Z,54.90
2018-03-26T18:28:23.208Z,55.00
2018-03-26T18:30:51.573Z,55.20
2018-03-26T18:33:19.211Z,55.10
2018-03-26T18:35:46.806Z,55.10
2018-03-26T18:38:15.169Z,55.00
2018-03-26T18:40:42.796Z,55.00
2018-03-26T18:43:10.387Z,55.20
2018-03-26T18:45:38.018Z,55.20
2018-03-26T18:48:05.612Z,55.10
2018-03-26T18:50:34.004Z,55.00
2018-03-26T18:53:01.601Z,55.00
2018-03-26T18:55:29.221Z,55.50
2018-03-26T18:57:56.820Z,55.20
2018-03-26T19:00:24.436Z,55.20
2018-03-26T19:02:52.038Z,55.20
2018-03-26T19:05:19.665Z,55.00
2018-03-26T19:07:47.286Z,55.20
2018-03-26T19:10:14.919Z,55.20
2018-03-26T19:12:42.516Z,55.20
2018-03-26T19:15:10.928Z,55.10
2018-03-26T19:17:39.516Z,55.20
2018-03-26T19:20:07.144Z,55.20
2018-03-26T19:22:34.736Z,55.80
2018-03-26T19:25:02.369Z,55.00
2018-03-26T19:27:29.967Z,55.00
2018-03-26T19:29:58.633Z,54.90
2018-03-26T19:32:26.261Z,54.90
2018-03-26T19:34:53.864Z,54.90
2018-03-26T19:37:22.273Z,55.00
2018-03-26T19:39:49.870Z,54.80
2018-03-26T19:42:17.522Z,54.90
2018-03-26T19:44:45.136Z,54.90
2018-03-26T19:47:13.493Z,54.80
2018-03-26T19:49:41.114Z,54.70
2018-03-26T19:52:08.708Z,54.70
2018-03-26T19:54:36.405Z,54.70
2018-03-26T19:57:04.776Z,54.70
2018-03-26T19:59:33.198Z,54.80
2018-03-26T20:02:00.802Z,54.70
2018-03-26T20:04:29.985Z,54.50
2018-03-26T20:06:57.619Z,54.40
2018-03-26T20:09:25.257Z,54.20
2018-03-26T20:11:53.258Z,54.40
2018-03-26T20:14:20.912Z,54.30
2018-03-26T20:16:48.668Z,54.30
2018-03-26T20:19:16.284Z,54.20
2018-03-26T20:21:43.915Z,54.20
2018-03-26T20:24:12.058Z,54.10
2018-03-26T20:26:39.749Z,54.40
2018-03-26T20:29:07.613Z,54.40
2018-03-26T20:31:35.298Z,54.40
2018-03-26T20:34:03.675Z,54.50
2018-03-26T20:36:31.276Z,54.50
2018-03-26T20:38:58.947Z,54.50
2018-03-26T20:41:26.586Z,54.40
2018-03-26T20:43:55.097Z,54.30
2018-03-26T20:46:22.790Z,54.30
2018-03-26T20:48:50.423Z,54.40
2018-03-26T20:51:18.204Z,54.40
2018-03-26T20:53:45.830Z,54.40
2018-03-26T20:56:13.634Z,54.40
2018-03-26T20:58:41.513Z,54.30
2018-03-26T21:01:09.372Z,54.30
2018-03-26T21:03:37.157Z,54.10
2018-03-26T21:06:05.858Z,54.30
2018-03-26T21:08:35.648Z,54.30
2018-03-26T21:11:03.402Z,54.20
2018-03-26T21:13:31.104Z,54.40
2018-03-26T21:15:59.651Z,54.60
2018-03-26T21:18:27.450Z,55.30
2018-03-26T21:20:56.006Z,54.70
2018-03-26T21:23:23.789Z,55.40
2018-03-26T21:25:52.358Z,55.60
2018-03-26T21:28:20.218Z,55.60
2018-03-26T21:30:47.917Z,56.40
2018-03-26T21:33:16.275Z,55.80
2018-03-26T21:35:43.906Z,55.70
2018-03-26T21:38:11.573Z,56.30
2018-03-26T21:40:39.967Z,55.80
2018-03-26T21:43:07.589Z,55.70
2018-03-26T21:45:35.338Z,55.80
2018-03-26T21:48:02.953Z,55.90
2018-03-26T21:50:30.545Z,55.90
2018-03-26T21:52:58.940Z,56.00
2018-03-26T21:55:26.528Z,55.80
2018-03-26T21:57:54.163Z,56.00
2018-03-26T22:00:21.759Z,56.10
2018-03-26T22:02:49.371Z,55.80
2018-03-26T22:05:17.712Z,55.70
2018-03-26T22:07:45.325Z,55.70
2018-03-26T22:10:12.912Z,55.70
2018-03-26T22:12:40.529Z,55.70
2018-03-26T22:15:08.880Z,55.60
2018-03-26T22:17:38.057Z,55.60
2018-03-26T22:20:05.676Z,55.60
2018-03-26T22:22:33.294Z,55.60
2018-03-26T22:25:00.900Z,55.50
2018-03-26T22:27:28.528Z,55.40
2018-03-26T22:29:57.662Z,55.50
2018-03-26T22:32:25.351Z,55.40
2018-03-26T22:34:52.979Z,55.50
2018-03-26T22:37:20.578Z,55.50
2018-03-26T22:39:48.232Z,55.40
2018-03-26T22:42:15.824Z,55.30
2018-03-26T22:44:43.466Z,55.40
2018-03-26T22:47:11.056Z,55.40
2018-03-26T22:49:39.415Z,55.70
2018-03-26T22:52:07.016Z,55.30
2018-03-26T22:54:35.410Z,55.50
2018-03-26T22:57:02.999Z,55.40
2018-03-26T22:59:30.587Z,55.40
2018-03-26T23:01:59.722Z,55.40
2018-03-26T23:04:27.309Z,55.40
2018-03-26T23:06:54.900Z,55.40
2018-03-26T23:09:23.289Z,55.40
2018-03-26T23:11:51.649Z,55.30
2018-03-26T23:14:19.285Z,55.20
2018-03-26T23:16:46.876Z,55.40
2018-03-26T23:19:14.490Z,55.50
2018-03-26T23:21:42.079Z,55.40
2018-03-26T23:24:09.697Z,55.40
2018-03-26T23:26:37.290Z,55.40
2018-03-26T23:29:04.928Z,55.40
2018-03-26T23:31:32.508Z,55.30
2018-03-26T23:34:00.088Z,55.30
2018-03-26T23:36:27.697Z,55.50
2018-03-26T23:38:56.048Z,55.30
2018-03-26T23:41:23.673Z,55.20
2018-03-26T23:43:51.261Z,55.40
2018-03-26T23:46:18.851Z,55.40
2018-03-26T23:48:47.241Z,55.30
2018-03-26T23:51:14.820Z,55.20
2018-03-26T23:53:42.448Z,55.20
2018-03-26T23:56:10.796Z,55.30
2018-03-26T23:58:39.888Z,55.20
